Time;durP1;ratioP1;P1;durP2;ratioP2;P2;SDS_P1;SDS_P2;PMS_P1;PMS_P2;Temp;Humidity;BMP_temperature;BMP_pressure;BME280_temperature;BME280_humidity;BME280_pressure;Samples;Min_cycle;Max_cycle;Signal;HPM_P1;HPM_P2
2022/06/29 00:07:54;;;;;;;13.18;2.47;;;14.10;99.90;;;;;;20982794;28;20098;-55
2022/06/29 00:17:57;;;;;;;6.68;2.63;;;14.10;99.90;;;;;;20982679;28;20090;-54
2022/06/29 00:27:59;;;;;;;8.65;2.67;;;14.10;99.90;;;;;;20981745;28;20045;-55
2022/06/29 00:38:02;;;;;;;8.32;2.40;;;14.30;99.90;;;;;;20980913;28;20083;-55
2022/06/29 00:48:05;;;;;;;11.52;2.15;;;14.50;99.90;;;;;;20980248;28;20045;-52
2022/06/29 00:58:10;;;;;;;4.63;1.48;;;14.40;99.90;;;;;;21026502;28;20028;-47
2022/06/29 01:08:13;;;;;;;12.65;2.53;;;14.10;99.90;;;;;;21061033;28;20660;-53
2022/06/29 01:18:16;;;;;;;6.35;1.80;;;14.00;99.90;;;;;;21061458;28;20052;-46
2022/06/29 01:28:18;;;;;;;6.47;1.60;;;14.00;99.90;;;;;;21060632;28;20040;-54
2022/06/29 01:38:21;;;;;;;9.48;2.10;;;14.50;99.90;;;;;;21059719;28;20036;-48
2022/06/29 01:48:24;;;;;;;7.10;1.50;;;14.70;99.90;;;;;;21058730;28;20032;-56
2022/06/29 01:58:26;;;;;;;5.90;1.58;;;14.90;99.90;;;;;;21008331;28;20102;-57
2022/06/29 02:08:30;;;;;;;6.20;1.48;;;14.90;99.90;;;;;;20973761;28;20037;-55
2022/06/29 02:18:32;;;;;;;9.80;1.98;;;15.10;99.90;;;;;;20972902;28;20074;-56
2022/06/29 02:28:35;;;;;;;5.28;1.55;;;15.30;99.90;;;;;;20971541;28;20105;-56
2022/06/29 02:38:37;;;;;;;4.72;1.67;;;15.20;99.90;;;;;;20971276;28;20495;-56
2022/06/29 02:48:40;;;;;;;9.85;1.98;;;15.40;99.90;;;;;;20970824;28;20407;-57
2022/06/29 02:58:42;;;;;;;9.63;1.92;;;15.50;99.90;;;;;;21022273;28;20093;-50
2022/06/29 03:08:45;;;;;;;5.13;1.98;;;15.10;99.90;;;;;;21052811;28;20573;-45
2022/06/29 03:18:49;;;;;;;7.03;2.33;;;14.40;99.90;;;;;;21052104;28;20502;-50
2022/06/29 03:28:52;;;;;;;10.18;1.80;;;14.10;99.90;;;;;;21051578;28;20082;-52
2022/06/29 03:38:55;;;;;;;7.85;2.40;;;14.00;99.90;;;;;;21050171;28;20390;-51
2022/06/29 03:48:57;;;;;;;10.27;2.70;;;14.00;99.90;;;;;;21050770;28;20436;-53
2022/06/29 03:59:00;;;;;;;7.35;2.70;;;14.10;99.90;;;;;;20995741;28;20044;-54
2022/06/29 04:09:03;;;;;;;10.18;2.45;;;14.20;99.90;;;;;;20950168;28;20316;-51
2022/06/29 04:19:06;;;;;;;4.97;1.95;;;14.20;99.90;;;;;;20949490;28;20082;-55
2022/06/29 04:29:09;;;;;;;8.20;2.88;;;14.30;99.90;;;;;;20965920;28;20435;-54
2022/06/29 04:39:12;;;;;;;11.63;2.20;;;14.30;99.90;;;;;;20965096;28;20036;-53
2022/06/29 04:49:17;;;;;;;3.72;1.77;;;14.40;99.90;;;;;;20975873;28;20053;-55
2022/06/29 04:59:19;;;;;;;8.90;2.05;;;14.50;99.90;;;;;;21036782;28;20077;-56
2022/06/29 05:09:25;;;;;;;5.22;1.50;;;14.50;99.90;;;;;;21062567;28;20082;-55
2022/06/29 05:19:29;;;;;;;5.93;2.40;;;14.60;99.90;;;;;;21061722;28;20115;-54
2022/06/29 05:29:33;;;;;;;9.70;2.47;;;14.70;99.90;;;;;;21060574;28;20097;-55
2022/06/29 05:39:36;;;;;;;6.18;2.05;;;14.60;99.90;;;;;;21061194;28;20058;-55
2022/06/29 05:49:38;;;;;;;11.10;2.42;;;14.80;99.90;;;;;;21059358;28;20036;-55
2022/06/29 05:59:41;;;;;;;6.50;2.03;;;14.90;99.90;;;;;;20997290;28;20032;-56
2022/06/29 06:09:43;;;;;;;8.75;2.50;;;15.00;99.90;;;;;;20973688;28;20032;-57
2022/06/29 06:19:46;;;;;;;6.45;2.00;;;15.30;99.90;;;;;;20972906;28;20044;-57
2022/06/29 06:29:50;;;;;;;7.53;2.10;;;15.60;99.90;;;;;;20972280;28;20098;-57
2022/06/29 06:50:13;;;;;;;7.03;1.63;;;17.30;99.90;;;;;;20970546;28;20037;-58
2022/06/29 07:00:16;;;;;;;8.98;1.92;;;17.70;99.90;;;;;;21035403;28;20183;-58
2022/06/29 07:10:18;;;;;;;8.07;2.67;;;17.70;99.90;;;;;;21052503;28;20028;-57
2022/06/29 07:20:22;;;;;;;2.83;1.45;;;17.80;99.90;;;;;;21051894;28;20498;-59
2022/06/29 07:30:24;;;;;;;4.63;1.60;;;19.90;99.90;;;;;;21034789;28;20576;-59
2022/06/29 07:40:27;;;;;;;10.60;2.78;;;20.10;99.90;;;;;;21051071;28;20040;-58
2022/06/29 07:50:30;;;;;;;3.83;1.83;;;19.50;99.90;;;;;;21068619;28;20039;-58
2022/06/29 08:00:33;;;;;;;3.65;1.50;;;18.60;99.90;;;;;;20982724;28;20106;-58
2022/06/29 08:10:36;;;;;;;6.35;2.13;;;18.40;99.90;;;;;;20965819;28;20032;-58
2022/06/29 08:20:40;;;;;;;5.30;1.85;;;18.60;99.90;;;;;;20971244;28;20086;-58
2022/06/29 08:30:42;;;;;;;6.13;2.10;;;18.70;99.90;;;;;;20981464;28;20048;-57
2022/06/29 08:40:47;;;;;;;7.15;2.42;;;18.50;99.90;;;;;;20980996;28;20056;-58
2022/06/29 08:50:52;;;;;;;7.78;2.20;;;18.70;99.90;;;;;;20998454;28;20036;-54
2022/06/29 09:00:55;;;;;;;9.68;2.10;;;19.40;99.90;;;;;;21050297;28;20031;-58
2022/06/29 09:11:18;;;;;;;7.78;2.45;;;19.60;99.90;;;;;;21062351;28;20073;-58
2022/06/29 09:21:21;;;;;;;8.23;3.00;;;19.70;99.90;;;;;;20994423;28;20045;-58
2022/06/29 09:31:24;;;;;;;6.93;3.45;;;19.50;99.90;;;;;;20994128;28;20041;-58
2022/06/29 09:41:27;;;;;;;6.55;2.88;;;19.50;99.90;;;;;;20993322;28;20486;-59
2022/06/29 09:51:30;;;;;;;4.50;2.38;;;19.70;99.90;;;;;;20991998;28;20094;-55
2022/06/29 10:22:31;;;;;;;6.80;1.98;;;20.40;99.90;;;;;;20906579;28;20049;-54
2022/06/29 10:32:34;;;;;;;9.38;2.83;;;20.00;99.90;;;;;;20907051;28;20071;-61
2022/06/29 10:53:04;;;;;;;7.57;2.55;;;23.70;99.90;;;;;;20908665;28;20137;-58
2022/06/29 11:03:18;;;;;;;6.63;2.60;;;23.80;98.00;;;;;;20986440;28;20037;-60
2022/06/29 11:13:28;;;;;;;8.40;2.95;;;24.80;98.30;;;;;;20990326;28;20047;-59
2022/06/29 11:23:33;;;;;;;7.75;2.85;;;24.70;97.40;;;;;;21052052;28;20090;-61
2022/06/29 11:33:40;;;;;;;6.40;2.47;;;26.20;96.00;;;;;;21051750;28;20040;-60
2022/06/29 11:43:44;;;;;;;7.72;2.60;;;26.50;98.30;;;;;;21052008;28;20047;-61
2022/06/29 11:53:54;;;;;;;6.75;2.90;;;26.70;97.20;;;;;;21038984;28;20036;-61
2022/06/29 12:04:02;;;;;;;4.38;2.70;;;26.80;95.10;;;;;;20967140;28;20437;-60
2022/06/29 12:14:04;;;;;;;9.47;3.13;;;24.20;94.50;;;;;;20966516;28;20566;-57
2022/06/29 12:24:06;;;;;;;6.50;2.85;;;23.80;99.90;;;;;;20965777;28;20098;-61
2022/06/29 12:34:10;;;;;;;9.57;4.28;;;25.90;98.50;;;;;;20965517;28;20044;-61
2022/06/29 12:44:14;;;;;;;9.25;4.38;;;26.40;95.00;;;;;;20965165;28;20044;-57
2022/06/29 12:54:17;;;;;;;5.03;2.60;;;25.10;94.10;;;;;;20979300;28;20032;-60
2022/06/29 13:04:19;;;;;;;6.03;2.90;;;25.00;99.60;;;;;;21049987;28;20054;-62
2022/06/29 13:14:22;;;;;;;9.05;3.38;;;26.30;99.40;;;;;;21061753;28;20101;-63
2022/06/29 13:24:24;;;;;;;6.57;2.97;;;28.90;96.00;;;;;;21061649;28;20113;-63
2022/06/29 13:34:28;;;;;;;6.72;3.05;;;29.80;93.80;;;;;;21060731;28;20048;-61
2022/06/29 13:44:33;;;;;;;10.13;3.35;;;28.00;94.60;;;;;;20901366;28;20102;-62
2022/06/29 13:54:40;;;;;;;7.23;3.70;;;27.50;95.60;;;;;;20850239;28;20080;-60
2022/06/29 14:04:43;;;;;;;11.55;3.45;;;27.40;94.30;;;;;;20800873;28;20582;-60
2022/06/29 14:14:45;;;;;;;9.35;3.65;;;25.30;96.60;;;;;;20827162;28;20491;-60
2022/06/29 14:24:48;;;;;;;10.43;3.72;;;23.70;98.90;;;;;;20972475;28;20091;-60
2022/06/29 14:34:51;;;;;;;7.93;3.33;;;22.60;99.90;;;;;;20972248;28;20486;-60
2022/06/29 14:44:55;;;;;;;7.30;3.05;;;22.30;99.90;;;;;;20814682;28;20139;-60
2022/06/29 14:54:57;;;;;;;8.52;3.67;;;22.30;99.90;;;;;;20817559;28;20183;-60
2022/06/29 15:05:00;;;;;;;6.25;3.08;;;22.40;99.90;;;;;;20878660;28;20071;-60
2022/06/29 15:15:02;;;;;;;9.88;3.00;;;23.90;99.90;;;;;;20903778;28;20124;-60
2022/06/29 15:25:05;;;;;;;8.50;3.55;;;24.00;99.90;;;;;;21051984;28;20073;-60
2022/06/29 15:45:29;;;;;;;12.10;4.32;;;26.20;94.10;;;;;;21050340;28;20090;-59
2022/06/29 15:55:34;;;;;;;12.48;4.45;;;23.60;96.70;;;;;;21024290;28;20097;-54
2022/06/29 16:05:36;;;;;;;9.07;4.22;;;22.50;98.90;;;;;;20966769;28;20101;-59
2022/06/29 16:15:39;;;;;;;12.50;4.05;;;21.60;99.70;;;;;;20965557;28;20037;-59
2022/06/29 16:25:41;;;;;;;9.68;4.10;;;21.00;99.90;;;;;;20965764;28;20040;-59
2022/06/29 16:35:44;;;;;;;8.25;3.92;;;20.50;99.90;;;;;;20965089;28;20045;-58
2022/06/29 16:45:48;;;;;;;13.02;6.95;;;20.30;99.90;;;;;;20976485;28;20044;-59
2022/06/29 16:55:50;;;;;;;14.48;6.72;;;20.10;99.90;;;;;;21007840;28;20390;-59
2022/06/29 17:05:53;;;;;;;15.80;6.90;;;20.00;99.90;;;;;;21046644;28;20389;-58
2022/06/29 17:15:55;;;;;;;12.13;7.57;;;19.80;99.90;;;;;;21060680;28;20439;-58
2022/06/29 17:26:00;;;;;;;14.90;8.25;;;19.60;99.90;;;;;;21062573;28;20102;-58
2022/06/29 17:36:03;;;;;;;12.57;8.05;;;19.40;99.90;;;;;;21060675;28;20032;-53
2022/06/29 17:46:06;;;;;;;12.48;7.47;;;19.30;99.90;;;;;;21059584;28;20028;-58
2022/06/29 17:56:09;;;;;;;14.07;9.35;;;19.00;99.90;;;;;;21027293;28;20101;-49
2022/06/29 18:06:11;;;;;;;12.45;8.00;;;18.60;99.90;;;;;;20974273;28;20036;-58
2022/06/29 18:16:14;;;;;;;14.88;9.23;;;18.40;99.90;;;;;;20957112;28;20094;-58
2022/06/29 18:26:16;;;;;;;16.67;9.50;;;18.40;99.90;;;;;;20973437;28;20040;-58
2022/06/29 18:36:20;;;;;;;17.88;12.10;;;18.30;99.90;;;;;;20973339;28;20040;-58
2022/06/29 18:46:25;;;;;;;23.70;10.55;;;18.10;99.90;;;;;;20968787;28;20063;-57
2022/06/29 18:56:28;;;;;;;25.48;10.95;;;17.80;99.90;;;;;;21000952;28;20032;-58
2022/06/29 19:06:30;;;;;;;19.92;11.02;;;17.40;99.90;;;;;;21052470;28;20032;-57
2022/06/29 19:16:33;;;;;;;16.33;10.30;;;17.00;99.90;;;;;;21052495;28;20094;-57
2022/06/29 19:26:36;;;;;;;21.30;11.23;;;17.10;99.90;;;;;;21034775;28;20100;-58
2022/06/29 19:36:40;;;;;;;19.00;10.93;;;16.80;99.90;;;;;;21051581;28;20077;-57
2022/06/29 19:46:43;;;;;;;14.02;9.38;;;16.60;99.90;;;;;;21050784;28;20101;-56
2022/06/29 19:56:46;;;;;;;22.92;11.73;;;16.60;99.90;;;;;;21014706;28;20458;-56
2022/06/29 20:06:49;;;;;;;17.75;9.23;;;16.60;99.90;;;;;;20966459;28;20044;-49
2022/06/29 20:16:52;;;;;;;28.05;15.70;;;16.60;99.90;;;;;;20955964;28;20106;-57
2022/06/29 20:26:54;;;;;;;14.68;10.07;;;16.70;99.90;;;;;;20965664;28;20041;-47
2022/06/29 20:36:57;;;;;;;16.95;9.13;;;16.60;99.90;;;;;;20981985;28;20052;-56
2022/06/29 20:47:01;;;;;;;16.90;8.13;;;16.20;99.90;;;;;;20981007;28;20094;-56
2022/06/29 20:57:10;;;;;;;13.57;7.88;;;15.70;99.90;;;;;;21018504;28;20028;-58
2022/06/29 21:07:14;;;;;;;13.88;8.63;;;15.50;99.90;;;;;;21063129;28;20036;-57
2022/06/29 21:17:17;;;;;;;13.15;8.40;;;15.30;99.90;;;;;;21061908;28;20044;-57
2022/06/29 21:27:19;;;;;;;17.75;9.10;;;15.20;99.90;;;;;;21061576;28;20081;-57
2022/06/29 21:37:21;;;;;;;17.23;10.93;;;15.20;99.90;;;;;;21061071;28;20089;-48
2022/06/29 21:47:27;;;;;;;21.42;10.10;;;15.00;99.90;;;;;;21059841;28;20024;-57
2022/06/29 21:57:29;;;;;;;22.23;12.82;;;15.00;99.90;;;;;;21018302;28;20036;-55
2022/06/29 22:07:31;;;;;;;21.75;11.70;;;15.00;99.90;;;;;;20735595;28;20042;-57
2022/06/29 22:17:34;;;;;;;17.58;12.45;;;14.90;99.90;;;;;;20735031;28;20042;-49
2022/06/29 22:27:36;;;;;;;24.73;13.95;;;14.90;99.90;;;;;;20734144;28;20435;-57
2022/06/29 22:37:39;;;;;;;22.35;12.35;;;14.80;99.90;;;;;;20699180;28;20402;-55
2022/06/29 22:47:43;;;;;;;26.42;12.75;;;14.90;99.90;;;;;;20859748;28;20113;-50
2022/06/29 22:57:45;;;;;;;23.02;11.88;;;14.80;99.90;;;;;;21013282;28;20036;-56
2022/06/29 23:07:49;;;;;;;19.65;11.43;;;14.70;99.90;;;;;;21047935;28;20032;-56
2022/06/29 23:17:52;;;;;;;24.60;13.07;;;14.60;99.90;;;;;;20984738;28;20380;-56
2022/06/29 23:27:54;;;;;;;26.38;15.00;;;14.50;99.90;;;;;;20968901;28;20488;-56
2022/06/29 23:37:57;;;;;;;34.53;15.57;;;14.60;99.90;;;;;;20967809;28;20085;-56
2022/06/29 23:48:00;;;;;;;22.95;13.77;;;14.50;99.90;;;;;;20966650;28;20036;-55
2022/06/29 23:58:03;;;;;;;22.80;12.77;;;14.50;99.90;;;;;;20968193;28;20041;-50
